Time;durP1;ratioP1;P1;durP2;ratioP2;P2;SDS_P1;SDS_P2;PMS_P1;PMS_P2;Temp;Humidity;BMP_temperature;BMP_pressure;BME280_temperature;BME280_humidity;BME280_pressure;Samples;Min_cycle;Max_cycle;Signal;HPM_P1;HPM_P2
2022/06/05 00:01:48;;;;;;;1999.90;999.90;;;19.50;99.90;;;;;;5115821;28;20199;-63
2022/06/05 00:04:28;;;;;;;1999.90;999.90;;;19.50;1.00;;;;;;5115616;28;20204;-63
2022/06/05 00:07:03;;;;;;;1999.90;999.90;;;19.50;1.00;;;;;;5115445;28;20194;-63
2022/06/05 00:09:39;;;;;;;1999.90;999.90;;;19.50;1.00;;;;;;5115487;28;20619;-64
2022/06/05 00:12:11;;;;;;;1999.90;999.90;;;19.60;1.00;;;;;;5115442;28;20215;-64
2022/06/05 00:14:40;;;;;;;1999.90;999.90;;;19.50;5.60;;;;;;5115471;28;20186;-63
2022/06/05 00:17:09;;;;;;;1999.90;999.90;;;19.50;99.90;;;;;;5115540;28;20231;-63
2022/06/05 00:19:36;;;;;;;1999.90;999.90;;;19.50;99.90;;;;;;5115288;28;20225;-63
2022/06/05 00:22:05;;;;;;;1999.90;999.90;;;19.50;1.00;;;;;;5114499;28;20197;-63
2022/06/05 00:24:33;;;;;;;1999.90;999.90;;;19.40;1.00;;;;;;5115340;28;20206;-64
2022/06/05 00:27:14;;;;;;;1999.90;999.90;;;19.40;1.00;;;;;;5114857;28;20642;-63
2022/06/05 00:30:01;;;;;;;1999.90;999.90;;;19.40;1.00;;;;;;5115021;28;20201;-63
2022/06/05 00:32:37;;;;;;;1999.90;999.90;;;19.40;99.90;;;;;;5114995;28;20200;-63
2022/06/05 00:35:05;;;;;;;1999.90;999.90;;;19.40;99.90;;;;;;5115061;28;20215;-64
2022/06/05 00:37:41;;;;;;;1999.90;999.90;;;19.40;1.00;;;;;;5115100;28;20250;-64
2022/06/05 00:40:28;;;;;;;1999.90;999.90;;;19.30;1.00;;;;;;5114719;28;20236;-63
2022/06/05 00:42:58;;;;;;;1999.90;999.90;;;19.30;1.00;;;;;;5114795;28;20250;-63
2022/06/05 00:45:29;;;;;;;1999.90;999.90;;;19.40;1.00;;;;;;5114535;28;20201;-63
2022/06/05 00:47:56;;;;;;;1999.90;999.90;;;19.30;1.00;;;;;;5114452;28;20186;-63
2022/06/05 00:50:27;;;;;;;1999.90;999.90;;;19.30;1.00;;;;;;5114422;28;20240;-63
2022/06/05 00:52:57;;;;;;;1999.90;999.90;;;19.30;99.90;;;;;;5114374;28;20207;-63
2022/06/05 00:55:25;;;;;;;1999.90;999.90;;;19.30;99.90;;;;;;5114772;28;20247;-64
2022/06/05 00:57:55;;;;;;;1999.90;999.90;;;19.20;1.00;;;;;;5114623;28;20191;-63
2022/06/05 01:00:28;;;;;;;1999.90;999.90;;;19.30;1.00;;;;;;5114530;28;20201;-63
2022/06/05 01:02:57;;;;;;;1999.90;999.90;;;19.20;1.00;;;;;;5114587;28;20539;-63
2022/06/05 01:05:27;;;;;;;1999.90;999.90;;;19.20;99.90;;;;;;5114604;28;20204;-63
2022/06/05 01:07:54;;;;;;;1999.90;999.90;;;19.20;99.90;;;;;;5114864;28;20598;-63
2022/06/05 01:10:25;;;;;;;1999.90;999.90;;;19.10;1.00;;;;;;5114356;28;20507;-63
2022/06/05 01:13:00;;;;;;;1999.90;999.90;;;19.10;1.00;;;;;;5114283;28;20190;-64
2022/06/05 01:15:39;;;;;;;1999.90;999.90;;;19.10;1.00;;;;;;5114297;28;20246;-64
2022/06/05 01:18:16;;;;;;;1999.90;999.90;;;19.10;99.90;;;;;;5114436;28;20769;-63
2022/06/05 01:20:55;;;;;;;1999.90;999.90;;;19.10;99.90;;;;;;5114273;28;20174;-63
2022/06/05 01:23:36;;;;;;;1999.90;999.90;;;19.10;1.00;;;;;;5114327;28;20194;-63
2022/06/05 01:26:20;;;;;;;1999.90;999.90;;;19.10;52.70;;;;;;5114171;28;20535;-63
2022/06/05 01:28:56;;;;;;;1999.90;999.90;;;19.00;99.90;;;;;;5114178;28;20182;-63
2022/06/05 01:31:30;;;;;;;1999.90;999.90;;;19.10;99.90;;;;;;5113968;28;20600;-63
2022/06/05 01:34:08;;;;;;;1999.90;999.90;;;19.10;1.00;;;;;;5114002;28;20231;-63
2022/06/05 01:36:39;;;;;;;1999.90;999.90;;;19.00;1.00;;;;;;5114232;28;20276;-63
2022/06/05 01:39:13;;;;;;;1999.90;999.90;;;19.00;99.90;;;;;;5113916;28;20234;-64
2022/06/05 01:41:45;;;;;;;1999.90;999.90;;;18.90;99.90;;;;;;5113763;28;20623;-63
2022/06/05 01:44:17;;;;;;;1999.90;999.90;;;18.90;1.00;;;;;;5114022;28;20186;-63
2022/06/05 01:46:44;;;;;;;1999.90;999.90;;;18.80;1.00;;;;;;5114006;28;20170;-64
2022/06/05 01:49:17;;;;;;;1999.90;999.90;;;18.80;99.90;;;;;;5113816;28;20200;-63
2022/06/05 01:51:50;;;;;;;1999.90;999.90;;;18.70;1.00;;;;;;5113782;28;20188;-64
2022/06/05 01:54:21;;;;;;;1999.90;999.90;;;18.70;99.90;;;;;;5113863;28;20234;-64
2022/06/05 01:56:53;;;;;;;1999.90;999.90;;;18.60;1.00;;;;;;5113822;28;20188;-64
2022/06/05 01:59:26;;;;;;;1999.90;999.90;;;18.50;65.60;;;;;;5113820;28;20200;-63
2022/06/05 02:01:58;;;;;;;1999.90;999.90;;;18.50;99.90;;;;;;5113589;28;20190;-63
2022/06/05 02:04:32;;;;;;;1999.90;999.90;;;18.50;1.00;;;;;;5113654;28;20182;-62
2022/06/05 02:07:03;;;;;;;1999.90;999.90;;;18.40;34.30;;;;;;5113420;28;20596;-63
2022/06/05 02:09:34;;;;;;;1999.90;999.90;;;18.30;99.90;;;;;;5113544;28;20692;-63
2022/06/05 02:12:03;;;;;;;1999.90;999.90;;;18.30;1.00;;;;;;5113224;28;20671;-63
2022/06/05 02:14:30;;;;;;;1999.90;999.90;;;18.20;1.00;;;;;;5113834;28;20638;-63
2022/06/05 02:16:59;;;;;;;1999.90;999.90;;;18.20;1.00;;;;;;5113542;28;20201;-63
2022/06/05 02:19:26;;;;;;;1999.90;999.90;;;18.20;1.00;;;;;;5113357;28;20213;-64
2022/06/05 02:21:59;;;;;;;1999.90;999.90;;;18.20;2.90;;;;;;5113339;28;20205;-63
2022/06/05 02:24:27;;;;;;;1999.90;999.90;;;18.20;9.30;;;;;;5113391;28;20227;-64
2022/06/05 02:26:54;;;;;;;1999.90;999.90;;;18.20;15.20;;;;;;5113032;28;20193;-63
2022/06/05 02:29:25;;;;;;;1999.90;999.90;;;18.20;24.00;;;;;;5113296;28;20201;-64
2022/06/05 02:32:05;;;;;;;1999.90;999.90;;;18.20;32.80;;;;;;5113242;28;20195;-63
2022/06/05 02:34:40;;;;;;;1999.90;999.90;;;18.20;54.70;;;;;;5113253;28;20581;-63
2022/06/05 02:37:26;;;;;;;1999.90;999.90;;;18.20;99.10;;;;;;5113236;28;20193;-63
2022/06/05 02:40:02;;;;;;;1999.90;999.90;;;18.20;99.90;;;;;;5112861;28;20221;-63
2022/06/05 02:42:34;;;;;;;1999.90;999.90;;;18.20;99.90;;;;;;5113045;28;20188;-63
2022/06/05 02:45:14;;;;;;;1999.90;999.90;;;18.10;99.90;;;;;;5112426;28;20200;-64
2022/06/05 02:47:49;;;;;;;1999.90;999.90;;;18.10;99.90;;;;;;5113172;28;20652;-63
2022/06/05 02:50:20;;;;;;;1999.90;999.90;;;18.10;99.90;;;;;;5112992;28;20197;-63
2022/06/05 02:52:47;;;;;;;1999.90;999.90;;;18.10;99.90;;;;;;5112937;28;20205;-64
2022/06/05 02:55:17;;;;;;;1999.90;999.90;;;18.10;99.90;;;;;;5112694;28;20650;-64
2022/06/05 02:57:45;;;;;;;1999.90;999.90;;;18.10;99.90;;;;;;5112665;28;20590;-63
2022/06/05 03:00:16;;;;;;;1999.90;999.90;;;18.10;99.90;;;;;;5112958;28;20205;-63
2022/06/05 03:05:27;;;;;;;1999.90;999.90;;;18.10;99.90;;;;;;5112923;28;20181;-63
2022/06/05 03:07:54;;;;;;;1999.90;999.90;;;18.10;99.90;;;;;;5112928;28;20529;-64
2022/06/05 03:10:21;;;;;;;1999.90;999.90;;;18.10;99.90;;;;;;5112790;28;20213;-63
2022/06/05 03:12:48;;;;;;;1999.90;999.90;;;18.00;99.90;;;;;;5112769;28;20212;-63
2022/06/05 03:15:17;;;;;;;1999.90;999.90;;;18.00;99.90;;;;;;5112797;28;20218;-63
2022/06/05 03:17:44;;;;;;;1999.90;999.90;;;18.10;99.90;;;;;;5112757;28;20253;-63
2022/06/05 03:20:13;;;;;;;1999.90;999.90;;;18.00;99.90;;;;;;5112739;28;20201;-63
2022/06/05 03:22:41;;;;;;;1999.90;999.90;;;18.00;99.90;;;;;;5112305;28;20250;-63
2022/06/05 03:25:09;;;;;;;1999.90;999.90;;;18.00;99.90;;;;;;5112687;28;20543;-63
2022/06/05 03:27:36;;;;;;;1999.90;999.90;;;18.00;99.90;;;;;;5112702;28;20545;-63
2022/06/05 03:30:04;;;;;;;1999.90;999.90;;;18.00;99.90;;;;;;5112587;28;20568;-63
2022/06/05 03:32:32;;;;;;;1999.90;999.90;;;18.00;99.90;;;;;;5112531;28;20200;-63
2022/06/05 03:34:59;;;;;;;1999.90;999.90;;;18.10;99.90;;;;;;5112642;28;20292;-63
2022/06/05 03:37:27;;;;;;;1999.90;999.90;;;18.00;99.90;;;;;;5112282;28;21134;-63
2022/06/05 03:39:54;;;;;;;1999.90;999.90;;;18.00;99.90;;;;;;5112093;28;20263;-64
2022/06/05 03:42:20;;;;;;;1999.90;999.90;;;18.00;99.90;;;;;;5112226;28;20548;-63
2022/06/05 03:44:47;;;;;;;1999.90;999.90;;;18.00;99.90;;;;;;5112481;28;20194;-63
2022/06/05 03:47:14;;;;;;;1999.90;999.90;;;18.00;99.90;;;;;;5112494;28;20201;-63
2022/06/05 03:49:43;;;;;;;1999.90;999.90;;;18.00;99.90;;;;;;5112209;28;20666;-63
2022/06/05 03:52:11;;;;;;;1999.90;999.90;;;18.00;99.90;;;;;;5111966;28;20686;-63
2022/06/05 03:54:39;;;;;;;1999.90;999.90;;;17.90;99.90;;;;;;5112208;28;20655;-64
2022/06/05 03:57:07;;;;;;;1999.90;999.90;;;17.90;99.90;;;;;;5113865;28;20309;-63
2022/06/05 03:59:35;;;;;;;1999.90;999.90;;;17.90;99.90;;;;;;5116251;28;20193;-63
2022/06/05 04:02:02;;;;;;;1999.90;999.90;;;17.80;99.90;;;;;;5115878;28;20185;-63
2022/06/05 04:04:29;;;;;;;1999.90;999.90;;;17.90;99.90;;;;;;5116130;28;20212;-63
2022/06/05 04:06:57;;;;;;;1999.90;999.90;;;17.80;99.90;;;;;;5115993;28;20554;-63
2022/06/05 04:09:24;;;;;;;1999.90;999.90;;;17.80;99.90;;;;;;5115962;28;20531;-63
2022/06/05 04:11:51;;;;;;;1999.90;999.90;;;17.80;99.90;;;;;;5115484;28;20694;-63
2022/06/05 04:14:18;;;;;;;1999.90;999.90;;;17.80;99.90;;;;;;5115587;28;20247;-63
2022/06/05 04:16:45;;;;;;;1999.90;999.90;;;17.80;99.90;;;;;;5115820;28;20524;-63
2022/06/05 04:19:12;;;;;;;1999.90;999.90;;;17.90;99.90;;;;;;5115859;28;20213;-63
2022/06/05 04:21:43;;;;;;;1999.90;999.90;;;17.90;99.90;;;;;;5115576;28;20182;-63
2022/06/05 04:24:12;;;;;;;1999.90;999.90;;;17.90;99.90;;;;;;5115790;28;20264;-63
2022/06/05 04:26:41;;;;;;;1999.90;999.90;;;17.90;99.90;;;;;;5115581;28;20202;-63
2022/06/05 04:29:08;;;;;;;1999.90;999.90;;;17.90;99.90;;;;;;5115585;28;20193;-63
2022/06/05 04:31:38;;;;;;;1999.90;999.90;;;17.90;99.90;;;;;;5115287;28;20214;-63
2022/06/05 04:34:07;;;;;;;1999.90;999.90;;;18.00;99.90;;;;;;5115537;28;20565;-63
2022/06/05 04:36:34;;;;;;;1999.90;999.90;;;18.00;99.90;;;;;;5115116;28;20201;-63
2022/06/05 04:39:01;;;;;;;1999.90;999.90;;;18.00;99.90;;;;;;5115159;28;20235;-63
2022/06/05 04:41:29;;;;;;;1999.90;999.90;;;18.00;99.90;;;;;;5115288;28;20202;-63
2022/06/05 04:43:57;;;;;;;1999.90;999.90;;;18.00;99.90;;;;;;5115324;28;20561;-63
2022/06/05 04:46:26;;;;;;;1999.90;999.90;;;18.00;99.90;;;;;;5115253;28;20201;-63
2022/06/05 04:48:53;;;;;;;1999.90;999.90;;;18.00;99.90;;;;;;5115242;28;20201;-63
2022/06/05 04:51:23;;;;;;;1999.90;999.90;;;18.10;99.90;;;;;;5114983;28;20282;-63
2022/06/05 04:53:51;;;;;;;1999.90;999.90;;;18.00;99.90;;;;;;5114796;28;20650;-63
2022/06/05 04:56:20;;;;;;;1999.90;999.90;;;18.10;99.90;;;;;;5115104;28;20205;-64
2022/06/05 04:58:49;;;;;;;1999.90;999.90;;;18.10;99.90;;;;;;5114736;28;20205;-63
2022/06/05 05:01:17;;;;;;;1999.90;999.90;;;18.10;99.90;;;;;;5114943;28;20243;-63
2022/06/05 05:03:45;;;;;;;1999.90;999.90;;;18.20;99.90;;;;;;5114434;28;20682;-63
2022/06/05 05:06:13;;;;;;;1999.90;999.90;;;18.20;99.90;;;;;;5114906;28;20190;-63
2022/06/05 05:08:40;;;;;;;1999.90;999.90;;;18.20;99.90;;;;;;5114136;28;20212;-63
2022/06/05 05:11:07;;;;;;;1999.90;999.90;;;18.30;99.90;;;;;;5114667;28;20217;-63
2022/06/05 05:13:34;;;;;;;1999.90;999.90;;;18.30;99.90;;;;;;5114701;28;20194;-63
2022/06/05 05:16:02;;;;;;;1999.90;999.90;;;18.30;99.90;;;;;;5114689;28;20198;-63
2022/06/05 05:18:30;;;;;;;1999.90;999.90;;;18.30;99.90;;;;;;5114597;28;20197;-63
2022/06/05 05:21:04;;;;;;;1999.90;999.90;;;18.40;99.90;;;;;;5114500;28;20200;-63
2022/06/05 05:23:32;;;;;;;1999.90;999.90;;;18.30;99.90;;;;;;5114513;28;20185;-63
2022/06/05 05:26:08;;;;;;;1999.90;999.90;;;18.40;99.90;;;;;;5114401;28;20193;-63
2022/06/05 05:28:34;;;;;;;1999.90;999.90;;;18.40;99.90;;;;;;5114014;28;20626;-63
2022/06/05 05:31:03;;;;;;;1999.90;999.90;;;18.40;99.90;;;;;;5113844;28;20747;-63
2022/06/05 05:33:30;;;;;;;1999.90;999.90;;;18.50;99.90;;;;;;5114032;28;20198;-63
2022/06/05 05:35:57;;;;;;;1999.90;999.90;;;18.50;99.90;;;;;;5113700;28;20209;-63
2022/06/05 05:38:23;;;;;;;1999.90;999.90;;;18.60;99.90;;;;;;5113956;28;20555;-64
2022/06/05 05:43:35;;;;;;;1999.90;999.90;;;18.60;99.90;;;;;;5114197;28;20247;-62
2022/06/05 05:46:03;;;;;;;1999.90;999.90;;;18.70;99.90;;;;;;5113921;28;20208;-62
2022/06/05 05:48:32;;;;;;;1999.90;999.90;;;18.70;99.90;;;;;;5113795;28;20268;-63
2022/06/05 05:50:58;;;;;;;1999.90;999.90;;;18.80;99.90;;;;;;5113508;28;20562;-63
2022/06/05 05:53:25;;;;;;;1999.90;999.90;;;18.90;99.90;;;;;;5113668;28;20545;-63
2022/06/05 05:55:52;;;;;;;1999.90;999.90;;;18.90;99.90;;;;;;5113615;28;20204;-63
2022/06/05 05:58:19;;;;;;;1999.90;999.90;;;19.00;99.90;;;;;;5113197;28;20205;-63
2022/06/05 06:00:46;;;;;;;1999.90;999.90;;;19.10;99.90;;;;;;5113351;28;20673;-63
2022/06/05 06:03:14;;;;;;;1999.90;999.90;;;19.10;99.90;;;;;;5113002;28;20658;-62
2022/06/05 06:05:41;;;;;;;1999.90;999.90;;;19.10;99.90;;;;;;5113494;28;20204;-62
2022/06/05 06:08:08;;;;;;;1999.90;999.90;;;19.10;99.90;;;;;;5113352;28;20198;-63
2022/06/05 06:10:35;;;;;;;1999.90;999.90;;;19.20;99.90;;;;;;5113402;28;20201;-63
2022/06/05 06:13:02;;;;;;;1999.90;999.90;;;19.20;99.90;;;;;;5113167;28;20201;-63
2022/06/05 06:15:29;;;;;;;1999.90;999.90;;;19.20;99.90;;;;;;5113400;28;20226;-63
2022/06/05 06:17:56;;;;;;;1999.90;999.90;;;19.20;99.90;;;;;;5113352;28;20201;-65
2022/06/05 06:20:24;;;;;;;1999.90;999.90;;;19.30;99.90;;;;;;5112291;28;20210;-63
2022/06/05 06:22:51;;;;;;;1999.90;999.90;;;19.20;99.90;;;;;;5112732;28;20201;-64
2022/06/05 06:25:18;;;;;;;1999.90;999.90;;;19.30;99.90;;;;;;5112794;28;20689;-63
2022/06/05 06:27:45;;;;;;;1999.90;999.90;;;19.30;99.90;;;;;;5112730;28;20686;-63
2022/06/05 06:30:12;;;;;;;1999.90;999.90;;;19.20;99.90;;;;;;5112820;28;20532;-63
2022/06/05 06:32:39;;;;;;;1999.90;999.90;;;19.30;99.90;;;;;;5112836;28;20213;-63
2022/06/05 06:35:07;;;;;;;1999.90;999.90;;;19.40;99.90;;;;;;5112929;28;20205;-63
2022/06/05 06:37:35;;;;;;;1999.90;999.90;;;19.40;99.90;;;;;;5112629;28;20258;-63
2022/06/05 06:40:02;;;;;;;1999.90;999.90;;;19.50;99.90;;;;;;5112570;28;20568;-63
2022/06/05 06:42:30;;;;;;;1999.90;999.90;;;19.50;99.90;;;;;;5112807;28;20195;-63
2022/06/05 06:44:57;;;;;;;1999.90;999.90;;;19.60;99.90;;;;;;5112787;28;20195;-64
2022/06/05 06:47:25;;;;;;;1999.90;999.90;;;19.70;99.90;;;;;;5112545;28;20201;-63
2022/06/05 06:49:52;;;;;;;1999.90;999.90;;;19.80;99.90;;;;;;5112657;28;20205;-63
2022/06/05 06:52:19;;;;;;;1999.90;999.90;;;19.90;99.90;;;;;;5112374;28;20214;-63
2022/06/05 06:54:48;;;;;;;1999.90;999.90;;;19.90;99.90;;;;;;5112697;28;20196;-63
2022/06/05 06:57:15;;;;;;;1999.90;999.90;;;20.10;99.90;;;;;;5112809;28;20565;-63
2022/06/05 06:59:42;;;;;;;1999.90;999.90;;;20.10;99.90;;;;;;5112442;28;20201;-63
2022/06/05 07:02:09;;;;;;;1999.90;999.90;;;20.20;99.90;;;;;;5112258;28;20204;-63
2022/06/05 07:04:36;;;;;;;1999.90;999.90;;;20.20;99.90;;;;;;5112407;28;20558;-63
2022/06/05 07:07:03;;;;;;;1999.90;999.90;;;20.30;99.90;;;;;;5112371;28;20193;-62
2022/06/05 07:09:32;;;;;;;1999.90;999.90;;;20.50;99.90;;;;;;5112072;28;20195;-63
2022/06/05 07:12:00;;;;;;;1999.90;999.90;;;20.60;99.90;;;;;;5112132;28;20223;-63
2022/06/05 07:14:27;;;;;;;1999.90;999.90;;;20.40;99.90;;;;;;5112189;28;20196;-63
2022/06/05 07:16:55;;;;;;;1999.90;999.90;;;20.50;99.90;;;;;;5112106;28;20677;-63
2022/06/05 07:19:22;;;;;;;1999.90;999.90;;;20.50;99.90;;;;;;5112268;28;20657;-64
2022/06/05 07:21:49;;;;;;;1999.90;999.90;;;20.50;99.90;;;;;;5112374;28;20211;-63
2022/06/05 07:24:16;;;;;;;1999.90;999.90;;;20.70;58.40;;;;;;5112412;28;20195;-63
2022/06/05 07:26:43;;;;;;;1999.90;999.90;;;20.70;24.50;;;;;;5112438;28;20202;-63
2022/06/05 07:29:12;;;;;;;1999.90;999.90;;;20.70;18.90;;;;;;5112451;28;20246;-63
2022/06/05 07:31:39;;;;;;;1999.90;999.90;;;20.80;99.90;;;;;;5112901;28;20954;-63
2022/06/05 07:34:09;;;;;;;1999.90;999.90;;;20.80;1.00;;;;;;5116457;28;20212;-63
2022/06/05 07:36:36;;;;;;;1999.90;999.90;;;20.80;13.60;;;;;;5115928;28;20654;-64
2022/06/05 07:39:04;;;;;;;1999.90;999.90;;;20.90;1.00;;;;;;5115821;28;20709;-63
2022/06/05 07:41:33;;;;;;;1999.90;999.90;;;20.90;1.00;;;;;;5115970;28;20174;-64
2022/06/05 07:44:01;;;;;;;1999.90;999.90;;;20.90;2.90;;;;;;5116145;28;20198;-64
2022/06/05 07:46:30;;;;;;;1999.90;999.90;;;20.90;1.00;;;;;;5116126;28;20262;-63
2022/06/05 07:48:58;;;;;;;1999.90;999.90;;;21.00;16.10;;;;;;5116225;28;20193;-64
2022/06/05 07:54:27;;;;;;;1999.90;999.90;;;21.10;29.70;;;;;;5116075;28;20530;-64
2022/06/05 07:56:55;;;;;;;1999.90;999.90;;;21.20;1.00;;;;;;5116047;28;20253;-63
2022/06/05 07:59:22;;;;;;;1999.90;999.90;;;21.40;1.00;;;;;;5115957;28;20201;-64
2022/06/05 08:01:50;;;;;;;1999.90;999.90;;;21.50;1.00;;;;;;5115729;28;20189;-63
2022/06/05 08:04:17;;;;;;;1999.90;999.90;;;21.50;1.00;;;;;;5115827;28;20194;-63
2022/06/05 08:06:44;;;;;;;1999.90;999.90;;;21.60;1.00;;;;;;5115460;28;20633;-63
2022/06/05 08:09:11;;;;;;;1999.90;999.90;;;21.90;1.00;;;;;;5115421;28;20653;-63
2022/06/05 08:11:42;;;;;;;1999.90;999.90;;;22.10;29.90;;;;;;5115624;28;20222;-63
2022/06/05 08:14:10;;;;;;;1999.90;999.90;;;22.10;99.90;;;;;;5115376;28;20706;-63
2022/06/05 08:16:39;;;;;;;1999.90;999.90;;;22.20;1.00;;;;;;5115568;28;20193;-63
2022/06/05 08:19:08;;;;;;;1999.90;999.90;;;22.30;99.90;;;;;;5115567;28;20220;-64
2022/06/05 08:21:35;;;;;;;1999.90;999.90;;;22.40;99.90;;;;;;5115424;28;20585;-63
2022/06/05 08:24:02;;;;;;;1999.90;999.90;;;22.40;99.90;;;;;;5115171;28;20205;-64
2022/06/05 08:26:29;;;;;;;1999.90;999.90;;;22.30;1.00;;;;;;5115009;28;20201;-65
2022/06/05 08:28:55;;;;;;;1999.90;999.90;;;22.30;1.00;;;;;;5115340;28;20205;-64
2022/06/05 08:31:22;;;;;;;1999.90;999.90;;;22.40;99.90;;;;;;5114747;28;20662;-64
2022/06/05 08:33:49;;;;;;;1999.90;999.90;;;22.40;99.90;;;;;;5115233;28;20216;-64
2022/06/05 08:36:18;;;;;;;1999.90;999.90;;;22.50;62.60;;;;;;5114777;28;20210;-64
2022/06/05 08:41:45;;;;;;;1999.90;999.90;;;22.30;1.00;;;;;;5115121;28;20177;-64
2022/06/05 08:44:25;;;;;;;1999.90;999.90;;;22.20;99.90;;;;;;5114004;28;20234;-64
2022/06/05 08:46:56;;;;;;;1999.90;999.90;;;22.10;99.90;;;;;;5115055;28;20201;-63
2022/06/05 08:49:31;;;;;;;1999.90;999.90;;;22.00;99.90;;;;;;5114968;28;20264;-63
2022/06/05 08:52:06;;;;;;;1999.90;999.90;;;22.00;1.00;;;;;;5114790;28;20604;-63
2022/06/05 08:54:39;;;;;;;1999.90;999.90;;;22.00;1.00;;;;;;5114132;28;20196;-63
2022/06/05 08:57:12;;;;;;;1999.90;999.90;;;21.80;1.00;;;;;;5114881;28;20197;-63
2022/06/05 08:59:46;;;;;;;1999.90;999.90;;;21.60;99.90;;;;;;5114921;28;20243;-62
2022/06/05 09:02:25;;;;;;;1999.90;999.90;;;21.60;1.00;;;;;;5114590;28;20181;-62
2022/06/05 09:04:59;;;;;;;1999.90;999.90;;;21.70;1.00;;;;;;5114776;28;20248;-63
2022/06/05 09:07:32;;;;;;;1999.90;999.90;;;21.60;1.00;;;;;;5113908;28;20193;-63
2022/06/05 09:10:06;;;;;;;1999.90;999.90;;;21.50;77.30;;;;;;5114458;28;20737;-63
2022/06/05 09:12:39;;;;;;;1999.90;999.90;;;21.40;99.90;;;;;;5114181;28;20296;-62
2022/06/05 09:15:16;;;;;;;1999.90;999.90;;;21.30;99.90;;;;;;5114183;28;20193;-62
2022/06/05 09:17:50;;;;;;;1999.90;999.90;;;21.30;99.90;;;;;;5114560;28;20277;-62
2022/06/05 09:20:18;;;;;;;1999.90;999.90;;;21.20;99.90;;;;;;5114091;28;20178;-62
2022/06/05 09:22:50;;;;;;;1999.90;999.90;;;21.20;99.90;;;;;;5113803;28;20684;-62
2022/06/05 09:25:42;;;;;;;1999.90;999.90;;;21.20;99.90;;;;;;5114178;28;20651;-63
2022/06/05 09:28:26;;;;;;;1999.90;999.90;;;21.10;99.90;;;;;;5114477;28;20251;-63
2022/06/05 09:31:02;;;;;;;1999.90;999.90;;;20.90;99.90;;;;;;5114072;28;20177;-62
2022/06/05 09:33:34;;;;;;;1999.90;999.90;;;20.90;99.90;;;;;;5114027;28;20206;-63
2022/06/05 09:36:04;;;;;;;1999.90;999.90;;;20.90;99.90;;;;;;5113953;28;20248;-63
2022/06/05 09:38:46;;;;;;;1999.90;999.90;;;20.80;99.90;;;;;;5113582;28;20205;-62
2022/06/05 09:41:27;;;;;;;1999.90;999.90;;;20.70;99.90;;;;;;5113814;28;20178;-64
2022/06/05 09:44:08;;;;;;;1999.90;999.90;;;20.60;99.90;;;;;;5114152;28;20188;-62
2022/06/05 09:46:57;;;;;;;1999.90;999.90;;;20.50;99.90;;;;;;5113838;28;20587;-62
2022/06/05 09:49:32;;;;;;;1999.90;999.90;;;20.30;99.90;;;;;;5113732;28;20239;-62
2022/06/05 09:52:09;;;;;;;1999.90;999.90;;;20.20;99.90;;;;;;5113944;28;20181;-63
2022/06/05 09:54:43;;;;;;;1999.90;999.90;;;20.10;99.90;;;;;;5113207;28;20196;-62
2022/06/05 10:00:15;;;;;;;1999.90;999.90;;;19.90;99.90;;;;;;5113301;28;20193;-62
2022/06/05 10:02:47;;;;;;;1999.90;999.90;;;19.70;99.90;;;;;;5113768;28;20225;-62
2022/06/05 10:05:16;;;;;;;1999.90;999.90;;;19.50;99.90;;;;;;5113471;28;20181;-63
2022/06/05 10:07:52;;;;;;;1999.90;999.90;;;19.30;99.90;;;;;;5113680;28;20193;-62
2022/06/05 10:10:32;;;;;;;1999.90;999.90;;;19.20;99.90;;;;;;5113436;28;20200;-63
2022/06/05 10:13:06;;;;;;;1999.90;999.90;;;18.80;99.90;;;;;;5113844;28;20282;-63
2022/06/05 10:15:41;;;;;;;1999.90;999.90;;;18.80;99.90;;;;;;5113504;28;20185;-63
2022/06/05 10:18:12;;;;;;;1999.90;999.90;;;18.90;99.90;;;;;;5113587;28;20191;-63
2022/06/05 10:20:56;;;;;;;1999.90;999.90;;;18.80;99.90;;;;;;5113127;28;20631;-63
2022/06/05 10:23:48;;;;;;;1999.90;999.90;;;19.00;99.90;;;;;;5114498;28;20190;-63
2022/06/05 10:26:28;;;;;;;1999.90;999.90;;;19.00;99.90;;;;;;5113345;28;20189;-63
2022/06/05 10:29:20;;;;;;;1999.90;999.90;;;19.00;99.90;;;;;;5113429;28;20193;-63
2022/06/05 10:31:55;;;;;;;1999.90;999.90;;;19.10;99.90;;;;;;5113045;28;20747;-62
2022/06/05 10:34:28;;;;;;;1999.90;999.90;;;19.10;99.90;;;;;;5112726;28;20572;-62
2022/06/05 10:37:05;;;;;;;1999.90;999.90;;;19.10;99.90;;;;;;5113557;28;20182;-63
2022/06/05 10:39:41;;;;;;;1999.90;999.90;;;19.30;99.90;;;;;;5112933;28;20284;-63
2022/06/05 10:42:35;;;;;;;1999.90;999.90;;;19.20;99.90;;;;;;5112976;28;20636;-62
2022/06/05 10:45:13;;;;;;;1999.90;999.90;;;19.20;99.90;;;;;;5112891;28;20181;-64
2022/06/05 10:47:46;;;;;;;1999.90;999.90;;;19.40;99.90;;;;;;5113057;28;20638;-63
2022/06/05 10:50:19;;;;;;;1999.90;999.90;;;19.30;99.90;;;;;;5113155;28;20189;-64
2022/06/05 10:52:55;;;;;;;1999.90;999.90;;;19.20;99.90;;;;;;5113710;28;20261;-63
2022/06/05 10:55:38;;;;;;;1999.90;999.90;;;19.20;99.90;;;;;;5113241;28;20711;-64
2022/06/05 10:58:23;;;;;;;1999.90;999.90;;;19.20;99.90;;;;;;5113125;28;20195;-62
2022/06/05 11:01:25;;;;;;;1999.90;999.90;;;19.20;99.90;;;;;;5112813;28;20692;-63
2022/06/05 11:03:57;;;;;;;1999.90;999.90;;;19.20;99.90;;;;;;5113012;28;20188;-64
2022/06/05 11:06:31;;;;;;;1999.90;999.90;;;19.20;99.90;;;;;;5113795;28;20181;-63
2022/06/05 11:09:08;;;;;;;1999.90;999.90;;;19.30;99.90;;;;;;5116934;28;20545;-62
2022/06/05 11:14:33;;;;;;;1999.90;999.90;;;19.60;99.90;;;;;;5117020;28;20274;-62
2022/06/05 11:17:07;;;;;;;1999.90;999.90;;;19.60;99.90;;;;;;5117056;28;20218;-62
2022/06/05 11:19:41;;;;;;;1999.90;999.90;;;19.70;99.90;;;;;;5117074;28;20209;-62
2022/06/05 11:22:13;;;;;;;1999.90;999.90;;;19.80;99.90;;;;;;5116802;28;20186;-63
2022/06/05 11:24:46;;;;;;;1999.90;999.90;;;19.90;99.90;;;;;;5116827;28;20605;-62
2022/06/05 11:27:20;;;;;;;1999.90;999.90;;;20.20;99.90;;;;;;5116824;28;20231;-63
2022/06/05 11:29:54;;;;;;;1999.90;999.90;;;20.30;99.90;;;;;;5116477;28;20258;-62
2022/06/05 11:32:40;;;;;;;1999.90;999.90;;;20.40;99.90;;;;;;5116260;28;20288;-62
2022/06/05 11:35:18;;;;;;;1999.90;999.90;;;20.40;99.90;;;;;;5113181;28;20565;-62
2022/06/05 11:37:54;;;;;;;1999.90;999.90;;;20.50;99.90;;;;;;5116580;28;20223;-62
2022/06/05 11:40:41;;;;;;;1999.90;999.90;;;20.80;99.90;;;;;;5116228;28;20286;-63
2022/06/05 11:43:27;;;;;;;1999.90;999.90;;;21.00;99.90;;;;;;5116031;28;20177;-63
2022/06/05 11:46:02;;;;;;;1999.90;999.90;;;21.10;99.90;;;;;;5116142;28;20194;-63
2022/06/05 11:48:35;;;;;;;1999.90;999.90;;;21.10;99.90;;;;;;5116434;28;20540;-64
2022/06/05 11:51:10;;;;;;;1999.90;999.90;;;21.60;99.90;;;;;;5116354;28;20196;-64
2022/06/05 11:53:45;;;;;;;1999.90;999.90;;;21.90;99.90;;;;;;5116145;28;20254;-63
2022/06/05 11:56:32;;;;;;;1999.90;999.90;;;22.30;99.90;;;;;;5116221;28;20182;-64
2022/06/05 11:59:10;;;;;;;1999.90;999.90;;;22.80;99.90;;;;;;5116193;28;20189;-63
2022/06/05 12:01:44;;;;;;;1999.90;999.90;;;23.00;99.90;;;;;;5116059;28;20185;-63
2022/06/05 12:04:19;;;;;;;1999.90;999.90;;;23.30;99.90;;;;;;5116236;28;20251;-63
2022/06/05 12:06:50;;;;;;;1999.90;999.90;;;24.00;99.90;;;;;;5116295;28;20185;-63
2022/06/05 12:09:20;;;;;;;1999.90;999.90;;;24.70;99.90;;;;;;5115841;28;20170;-63
2022/06/05 12:11:55;;;;;;;1999.90;999.90;;;25.00;99.90;;;;;;5115817;28;20544;-63
2022/06/05 12:14:26;;;;;;;1999.90;999.90;;;24.70;99.90;;;;;;5115875;28;20204;-64
2022/06/05 12:17:05;;;;;;;1999.90;999.90;;;24.40;99.90;;;;;;5115791;28;20174;-64
2022/06/05 12:19:45;;;;;;;1999.90;999.90;;;23.90;99.90;;;;;;5114608;28;20186;-64
2022/06/05 12:22:20;;;;;;;1999.90;999.90;;;23.80;99.90;;;;;;5115609;28;20178;-64
2022/06/05 12:24:51;;;;;;;1999.90;999.90;;;23.50;99.90;;;;;;5115626;28;20173;-64
2022/06/05 12:27:20;;;;;;;1999.90;999.90;;;23.20;99.90;;;;;;5115330;28;20186;-64
2022/06/05 12:29:52;;;;;;;1999.90;999.90;;;23.00;99.90;;;;;;5115513;28;20193;-63
2022/06/05 12:32:29;;;;;;;1999.90;999.90;;;22.80;99.90;;;;;;5115412;28;20549;-62
2022/06/05 12:35:03;;;;;;;1999.90;999.90;;;22.80;99.90;;;;;;5115138;28;20727;-62
2022/06/05 12:37:37;;;;;;;1999.90;999.90;;;22.80;99.90;;;;;;5115332;28;20207;-63
2022/06/05 12:40:06;;;;;;;1999.90;999.90;;;22.80;99.90;;;;;;5114997;28;20313;-63